Time;durP1;ratioP1;P1;durP2;ratioP2;P2;SDS_P1;SDS_P2;PMS_P1;PMS_P2;Temp;Humidity;BMP_temperature;BMP_pressure;BME280_temperature;BME280_humidity;BME280_pressure;Samples;Min_cycle;Max_cycle;Signal;HPM_P1;HPM_P2
2022/04/10 00:00:02;;;;;;;4.07;3.53;;;6.70;99.90;;;;;;5035716;28;20232;-68
2022/04/10 00:02:27;;;;;;;6.50;3.50;;;6.70;99.90;;;;;;5054206;28;20488;-68
2022/04/10 00:04:53;;;;;;;5.00;3.33;;;6.60;99.90;;;;;;5064234;28;20404;-68
2022/04/10 00:07:18;;;;;;;6.90;3.87;;;6.70;99.90;;;;;;5074256;28;20266;-67
2022/04/10 00:09:44;;;;;;;6.20;4.00;;;6.80;99.90;;;;;;5074085;28;20186;-68
2022/04/10 00:12:10;;;;;;;4.40;3.70;;;6.80;99.90;;;;;;5073811;28;20163;-68
2022/04/10 00:14:36;;;;;;;4.87;3.67;;;6.60;99.90;;;;;;5056853;28;20170;-67
2022/04/10 00:17:02;;;;;;;3.47;3.17;;;6.40;99.90;;;;;;5053616;28;20189;-67
2022/04/10 00:19:27;;;;;;;4.37;3.87;;;6.50;99.90;;;;;;5053635;28;20401;-68
2022/04/10 00:21:53;;;;;;;3.93;3.53;;;6.40;99.90;;;;;;5053954;28;20206;-66
2022/04/10 00:24:19;;;;;;;5.60;3.63;;;6.40;99.90;;;;;;5035890;28;20170;-66
2022/04/10 00:26:44;;;;;;;4.63;3.63;;;6.40;99.90;;;;;;5053677;28;20170;-67
2022/04/10 00:29:11;;;;;;;5.80;3.50;;;6.40;99.90;;;;;;5052975;28;20206;-66
2022/04/10 00:31:36;;;;;;;4.83;3.30;;;6.20;99.90;;;;;;5053636;28;20199;-68
2022/04/10 00:34:02;;;;;;;5.73;3.90;;;6.10;99.90;;;;;;5053482;28;20826;-68
2022/04/10 00:36:28;;;;;;;4.27;3.73;;;6.00;99.90;;;;;;5053601;28;20251;-67
2022/04/10 00:38:53;;;;;;;3.97;3.57;;;6.00;99.90;;;;;;5053537;28;20187;-68
2022/04/10 00:41:19;;;;;;;6.03;3.90;;;5.80;99.90;;;;;;5058678;28;20182;-68
2022/04/10 00:44:08;;;;;;;4.53;4.13;;;5.80;99.90;;;;;;5057836;28;20181;-68
2022/04/10 00:46:33;;;;;;;4.03;3.63;;;5.80;99.90;;;;;;5034945;28;20175;-68
2022/04/10 00:48:59;;;;;;;4.97;3.90;;;5.80;99.90;;;;;;5075973;23;20489;-68
2022/04/10 00:51:43;;;;;;;4.83;3.80;;;5.80;99.90;;;;;;5054359;28;20292;-68
2022/04/10 00:54:20;;;;;;;5.30;4.00;;;5.80;99.90;;;;;;5054154;28;20143;-68
2022/04/10 00:56:46;;;;;;;4.90;3.83;;;5.90;99.90;;;;;;5054628;28;20380;-68
2022/04/10 00:59:13;;;;;;;5.03;3.27;;;5.80;99.90;;;;;;5053335;28;20772;-68
2022/04/10 01:01:40;;;;;;;8.70;3.63;;;5.90;99.90;;;;;;5054092;28;20585;-67
2022/04/10 01:04:06;;;;;;;5.20;4.17;;;5.80;99.90;;;;;;5053757;28;20913;-68
2022/04/10 01:06:32;;;;;;;4.07;3.60;;;5.70;99.90;;;;;;5054108;28;20406;-68
2022/04/10 01:08:58;;;;;;;3.80;3.50;;;5.90;99.90;;;;;;5053849;28;20460;-68
2022/04/10 01:11:24;;;;;;;4.23;3.83;;;5.90;99.90;;;;;;5053600;28;20985;-68
2022/04/10 01:13:53;;;;;;;4.70;4.13;;;6.10;99.90;;;;;;5053122;28;20413;-68
2022/04/10 01:16:21;;;;;;;3.90;3.47;;;6.10;99.90;;;;;;5053651;28;20163;-68
2022/04/10 01:18:47;;;;;;;3.57;3.23;;;6.10;99.90;;;;;;5053485;28;20524;-68
2022/04/10 01:21:19;;;;;;;6.10;3.70;;;6.00;99.90;;;;;;5035667;28;20484;-68
2022/04/10 01:23:45;;;;;;;6.80;3.57;;;6.00;99.90;;;;;;5053474;28;20155;-68
2022/04/10 01:26:10;;;;;;;4.90;3.47;;;5.70;99.90;;;;;;5053427;28;20402;-68
2022/04/10 01:28:36;;;;;;;3.90;3.53;;;5.70;99.90;;;;;;5052829;28;20535;-68
2022/04/10 01:31:01;;;;;;;5.73;3.97;;;5.70;99.90;;;;;;5053385;28;20196;-68
2022/04/10 01:33:27;;;;;;;6.20;4.60;;;5.70;99.90;;;;;;5053837;28;20640;-68
2022/04/10 01:35:54;;;;;;;3.53;3.23;;;5.60;99.90;;;;;;5053220;28;20170;-69
2022/04/10 01:38:21;;;;;;;4.93;4.00;;;5.70;99.90;;;;;;5053222;28;20182;-68
2022/04/10 01:40:47;;;;;;;6.47;4.20;;;5.70;99.90;;;;;;5053215;28;20894;-68
2022/04/10 01:43:12;;;;;;;5.73;3.70;;;5.60;99.90;;;;;;5052193;28;20418;-68
2022/04/10 01:45:38;;;;;;;6.73;3.90;;;5.60;99.90;;;;;;5052960;28;20229;-68
2022/04/10 01:48:05;;;;;;;4.80;3.77;;;5.60;99.90;;;;;;5053052;28;20194;-68
2022/04/10 01:50:30;;;;;;;4.07;3.67;;;5.70;99.90;;;;;;5053404;28;20170;-69
2022/04/10 01:52:56;;;;;;;5.90;3.57;;;5.70;99.90;;;;;;5053098;28;20401;-69
2022/04/10 01:55:22;;;;;;;7.80;3.67;;;5.80;99.90;;;;;;5053385;28;20159;-68
2022/04/10 01:57:47;;;;;;;4.50;4.10;;;5.80;99.90;;;;;;5052967;28;20178;-68
2022/04/10 02:00:13;;;;;;;5.93;4.40;;;5.90;99.90;;;;;;5052818;28;20463;-68
2022/04/10 02:02:39;;;;;;;5.03;3.77;;;6.00;99.90;;;;;;5053008;28;20173;-68
2022/04/10 02:05:05;;;;;;;6.70;4.20;;;6.00;99.90;;;;;;5052852;28;20170;-68
2022/04/10 02:07:30;;;;;;;4.50;4.10;;;6.10;99.90;;;;;;5053834;28;20190;-68
2022/04/10 02:09:56;;;;;;;5.30;4.20;;;6.20;99.90;;;;;;5054250;28;20409;-68
2022/04/10 02:12:22;;;;;;;5.07;4.00;;;6.10;99.90;;;;;;5052756;28;20309;-68
2022/04/10 02:14:47;;;;;;;6.30;3.77;;;6.20;99.90;;;;;;5055491;28;20170;-68
2022/04/10 02:17:13;;;;;;;4.60;3.60;;;6.20;99.90;;;;;;5059205;28;20217;-68
2022/04/10 02:19:38;;;;;;;3.90;3.53;;;6.20;99.90;;;;;;5059401;28;20562;-68
2022/04/10 02:22:04;;;;;;;6.57;3.70;;;6.10;99.90;;;;;;5059455;28;20607;-68
2022/04/10 02:24:30;;;;;;;3.77;3.43;;;6.10;99.90;;;;;;5059314;28;20170;-68
2022/04/10 02:26:56;;;;;;;6.37;4.00;;;6.10;99.90;;;;;;5059600;28;20201;-67
2022/04/10 02:29:21;;;;;;;4.67;3.90;;;5.90;99.90;;;;;;5058757;28;20198;-68
2022/04/10 02:31:47;;;;;;;7.03;4.00;;;5.70;99.90;;;;;;5059387;28;20785;-68
2022/04/10 02:34:13;;;;;;;11.93;4.90;;;5.80;99.90;;;;;;5059319;28;20167;-68
2022/04/10 02:36:38;;;;;;;4.37;3.60;;;5.80;99.90;;;;;;5059334;28;20170;-68
2022/04/10 02:39:04;;;;;;;5.13;3.80;;;5.80;99.90;;;;;;5059267;28;20193;-68
2022/04/10 02:41:29;;;;;;;4.97;4.20;;;5.80;99.90;;;;;;5056893;28;20246;-68
2022/04/10 02:43:55;;;;;;;5.20;3.50;;;5.70;99.90;;;;;;5057876;28;20174;-68
2022/04/10 02:46:20;;;;;;;5.70;3.70;;;5.70;99.90;;;;;;5059230;28;20220;-68
2022/04/10 02:48:46;;;;;;;4.20;3.80;;;5.70;99.90;;;;;;5058943;28;20202;-68
2022/04/10 02:51:12;;;;;;;4.13;3.80;;;5.60;99.90;;;;;;5059476;28;20158;-68
2022/04/10 02:53:37;;;;;;;3.47;3.17;;;5.60;99.90;;;;;;5059469;28;20173;-68
2022/04/10 02:56:03;;;;;;;5.50;3.57;;;5.40;99.90;;;;;;5059491;28;20194;-68
2022/04/10 02:58:29;;;;;;;4.70;4.20;;;5.40;99.90;;;;;;5058584;28;20187;-68
2022/04/10 03:00:54;;;;;;;4.23;3.83;;;5.40;99.90;;;;;;5059434;28;20935;-68
2022/04/10 03:03:20;;;;;;;4.20;3.73;;;5.20;99.90;;;;;;5059415;28;20166;-68
2022/04/10 03:05:45;;;;;;;5.53;4.30;;;5.30;99.90;;;;;;5059064;28;20515;-68
2022/04/10 03:08:11;;;;;;;6.60;4.43;;;5.20;99.90;;;;;;5059193;28;20198;-69
2022/04/10 03:10:37;;;;;;;4.87;4.30;;;5.10;99.90;;;;;;5059075;28;20158;-68
2022/04/10 03:13:02;;;;;;;4.10;3.70;;;5.10;99.90;;;;;;5058390;28;20222;-68
2022/04/10 03:15:28;;;;;;;5.97;4.10;;;5.00;99.90;;;;;;5059291;28;20159;-68
2022/04/10 03:17:53;;;;;;;5.83;4.27;;;4.90;99.90;;;;;;5059111;28;20182;-68
2022/04/10 03:20:19;;;;;;;7.37;5.00;;;4.90;99.90;;;;;;5059235;28;20228;-68
2022/04/10 03:22:44;;;;;;;4.80;4.30;;;4.90;99.90;;;;;;5059200;28;20187;-67
2022/04/10 03:25:10;;;;;;;8.80;5.60;;;4.70;99.90;;;;;;5058560;28;20163;-68
2022/04/10 03:27:36;;;;;;;5.30;4.03;;;4.70;99.90;;;;;;5054842;28;20202;-67
2022/04/10 03:30:03;;;;;;;8.27;4.30;;;4.70;99.90;;;;;;5055258;28;20795;-68
2022/04/10 03:32:28;;;;;;;7.47;4.90;;;4.70;99.90;;;;;;5056139;28;20631;-68
2022/04/10 03:34:54;;;;;;;5.67;4.80;;;4.70;99.90;;;;;;5055654;28;20397;-68
2022/04/10 03:37:19;;;;;;;6.00;5.00;;;4.70;99.90;;;;;;5055492;28;20166;-68
2022/04/10 03:39:45;;;;;;;8.10;5.53;;;4.60;99.90;;;;;;5055846;28;20170;-68
2022/04/10 03:42:10;;;;;;;4.30;3.90;;;4.50;99.90;;;;;;5055507;28;20174;-67
2022/04/10 03:44:36;;;;;;;7.10;4.67;;;4.50;99.90;;;;;;5054331;28;20181;-68
2022/04/10 03:47:02;;;;;;;5.30;4.47;;;4.50;99.90;;;;;;5037324;28;20182;-67
2022/04/10 03:49:27;;;;;;;5.53;5.10;;;4.50;99.90;;;;;;5055173;28;20253;-68
2022/04/10 03:51:53;;;;;;;5.37;4.97;;;4.40;99.90;;;;;;5055436;28;20163;-67
2022/04/10 03:54:18;;;;;;;6.90;5.20;;;4.40;99.90;;;;;;5055572;28;20687;-67
2022/04/10 03:56:44;;;;;;;8.37;6.37;;;4.40;99.90;;;;;;5055211;28;20166;-67
2022/04/10 03:59:10;;;;;;;6.43;5.80;;;4.40;99.90;;;;;;5054992;28;20189;-68
2022/04/10 04:01:35;;;;;;;5.83;5.03;;;4.30;99.90;;;;;;5055534;28;20174;-68
2022/04/10 04:04:01;;;;;;;6.10;5.50;;;4.40;99.90;;;;;;5056852;28;20641;-68
2022/04/10 04:06:26;;;;;;;6.30;5.67;;;4.30;99.90;;;;;;5056573;28;20170;-68
2022/04/10 04:08:52;;;;;;;5.60;5.10;;;4.20;99.90;;;;;;5055523;28;20199;-68
2022/04/10 04:11:17;;;;;;;6.83;5.50;;;4.20;99.90;;;;;;5055453;28;20167;-67
2022/04/10 04:13:43;;;;;;;6.37;5.77;;;4.30;99.90;;;;;;5054590;28;20249;-68
2022/04/10 04:16:09;;;;;;;6.40;5.90;;;4.30;99.90;;;;;;5054995;28;20178;-68
2022/04/10 04:18:35;;;;;;;5.40;5.00;;;4.30;99.90;;;;;;5055213;28;20277;-68
2022/04/10 04:21:03;;;;;;;7.30;6.23;;;4.40;99.90;;;;;;5054925;28;20167;-68
2022/04/10 04:23:29;;;;;;;8.63;5.90;;;4.40;99.90;;;;;;5054999;28;20409;-68
2022/04/10 04:25:55;;;;;;;5.87;5.20;;;4.50;99.90;;;;;;5054931;28;20982;-69
2022/04/10 04:28:20;;;;;;;7.43;6.60;;;4.50;99.90;;;;;;5054187;28;20202;-67
2022/04/10 04:30:46;;;;;;;6.73;6.07;;;4.50;99.90;;;;;;5054967;28;20194;-69
2022/04/10 04:33:12;;;;;;;6.63;6.00;;;4.60;99.90;;;;;;5054908;28;20175;-68
2022/04/10 04:35:37;;;;;;;5.93;5.23;;;4.70;99.90;;;;;;5054865;28;20401;-68
2022/04/10 04:38:03;;;;;;;6.97;6.27;;;4.80;99.90;;;;;;5036133;28;20694;-68
2022/04/10 04:40:29;;;;;;;9.37;6.37;;;4.70;99.90;;;;;;5054579;28;20170;-67
2022/04/10 04:42:54;;;;;;;6.50;5.90;;;4.70;99.90;;;;;;5053978;28;20174;-68
2022/04/10 04:45:20;;;;;;;7.60;6.90;;;4.80;99.90;;;;;;5054174;28;20171;-68
2022/04/10 04:47:46;;;;;;;6.13;5.53;;;5.00;99.90;;;;;;5053799;28;20659;-68
2022/04/10 04:50:11;;;;;;;6.90;6.20;;;5.10;99.90;;;;;;5053565;28;20159;-68
2022/04/10 04:52:37;;;;;;;7.27;6.10;;;5.30;99.90;;;;;;5053544;28;20163;-68
2022/04/10 04:55:03;;;;;;;7.10;6.40;;;5.30;99.90;;;;;;5053581;28;20170;-68
2022/04/10 04:57:28;;;;;;;12.30;6.13;;;5.40;99.90;;;;;;5053543;28;20188;-68
2022/04/10 04:59:54;;;;;;;6.90;6.23;;;5.50;99.90;;;;;;5052615;28;20920;-68
2022/04/10 05:02:20;;;;;;;8.67;7.47;;;5.40;99.90;;;;;;5053086;28;20171;-68
2022/04/10 05:04:45;;;;;;;8.47;6.97;;;5.40;99.90;;;;;;5053255;28;20258;-68
2022/04/10 05:07:11;;;;;;;7.20;6.50;;;5.40;99.90;;;;;;5053148;28;20175;-68
2022/04/10 05:09:36;;;;;;;6.63;6.03;;;5.50;99.90;;;;;;5052899;28;20194;-68
2022/04/10 05:12:02;;;;;;;7.07;6.47;;;5.50;99.90;;;;;;5053184;28;20683;-68
2022/04/10 05:14:28;;;;;;;6.87;6.17;;;5.60;99.90;;;;;;5052467;28;20193;-68
2022/04/10 05:16:53;;;;;;;8.17;7.00;;;5.70;99.90;;;;;;5053182;28;20167;-68
2022/04/10 05:19:19;;;;;;;7.93;6.30;;;5.70;99.90;;;;;;5047272;28;20203;-69
2022/04/10 05:21:45;;;;;;;7.53;6.63;;;5.60;99.90;;;;;;5043547;28;20186;-68
2022/04/10 05:24:11;;;;;;;6.50;5.90;;;5.60;99.90;;;;;;5043567;28;20179;-69
2022/04/10 05:26:37;;;;;;;5.67;5.10;;;5.60;99.90;;;;;;5043467;28;20764;-69
2022/04/10 05:29:03;;;;;;;7.43;6.30;;;5.60;99.90;;;;;;5042707;28;20325;-69
2022/04/10 05:31:29;;;;;;;5.50;5.00;;;5.80;99.90;;;;;;5043492;28;20166;-68
2022/04/10 05:33:55;;;;;;;7.30;6.53;;;5.80;99.90;;;;;;5043229;28;20232;-68
2022/04/10 05:36:21;;;;;;;6.73;6.10;;;5.80;99.90;;;;;;5042186;28;20929;-67
2022/04/10 05:38:47;;;;;;;6.93;6.30;;;5.90;99.90;;;;;;5043310;28;20214;-67
2022/04/10 05:41:13;;;;;;;7.43;6.33;;;6.10;99.90;;;;;;5043395;28;20440;-68
2022/04/10 05:43:39;;;;;;;7.13;6.53;;;6.10;99.90;;;;;;5041906;28;20512;-68
2022/04/10 05:46:04;;;;;;;6.10;5.50;;;6.00;99.90;;;;;;5043321;28;20520;-69
2022/04/10 05:48:31;;;;;;;6.90;6.30;;;6.20;99.90;;;;;;5005361;28;1077071;-70
2022/04/10 05:50:57;;;;;;;7.93;6.43;;;6.20;99.90;;;;;;5043647;28;20177;-69
2022/04/10 05:53:24;;;;;;;6.53;5.93;;;6.10;99.90;;;;;;5051778;28;20751;-68
2022/04/10 05:55:49;;;;;;;6.17;5.77;;;6.10;99.90;;;;;;5035134;28;20171;-69
2022/04/10 05:58:15;;;;;;;7.87;6.87;;;6.00;99.90;;;;;;5052965;28;20440;-68
2022/04/10 06:00:40;;;;;;;8.00;7.30;;;5.90;99.90;;;;;;5052546;28;20185;-67
2022/04/10 06:03:06;;;;;;;7.20;6.60;;;6.00;99.90;;;;;;5053290;28;20616;-67
2022/04/10 06:05:32;;;;;;;9.90;6.33;;;5.90;99.90;;;;;;5053152;28;20175;-68
2022/04/10 06:07:57;;;;;;;7.43;6.00;;;5.90;99.90;;;;;;5052745;28;20659;-67
2022/04/10 06:10:23;;;;;;;9.93;6.93;;;6.00;99.90;;;;;;5053215;28;20425;-67
2022/04/10 06:12:49;;;;;;;6.33;5.13;;;6.20;99.90;;;;;;5055336;28;20205;-68
2022/04/10 06:15:20;;;;;;;6.00;5.50;;;6.10;99.90;;;;;;5031313;28;20183;-68
2022/04/10 06:17:46;;;;;;;8.73;6.17;;;6.20;99.90;;;;;;5032864;28;20205;-68
2022/04/10 06:20:12;;;;;;;7.40;5.83;;;6.50;99.90;;;;;;5032921;28;20409;-68
2022/04/10 06:22:38;;;;;;;6.70;5.47;;;6.50;99.90;;;;;;5035708;28;20409;-69
2022/04/10 06:25:04;;;;;;;6.20;5.63;;;6.60;99.90;;;;;;5052042;28;20405;-68
2022/04/10 06:27:29;;;;;;;6.13;5.53;;;6.70;99.90;;;;;;5052963;28;20557;-68
2022/04/10 06:29:55;;;;;;;5.63;4.80;;;7.00;99.90;;;;;;5052249;28;20503;-68
2022/04/10 06:32:21;;;;;;;8.83;5.27;;;7.20;99.90;;;;;;5052794;28;20541;-68
2022/04/10 06:34:46;;;;;;;6.00;5.50;;;7.20;99.90;;;;;;5052699;28;20167;-68
2022/04/10 06:37:12;;;;;;;7.60;5.00;;;7.30;99.90;;;;;;5052540;28;20174;-68
2022/04/10 06:39:38;;;;;;;8.37;6.10;;;7.40;99.90;;;;;;5052888;28;20179;-68
2022/04/10 06:42:08;;;;;;;11.73;5.70;;;7.30;99.90;;;;;;5052843;28;20421;-68
2022/04/10 06:44:33;;;;;;;6.27;5.67;;;7.40;99.90;;;;;;5051724;28;20789;-69
2022/04/10 06:46:59;;;;;;;5.50;5.00;;;7.40;99.90;;;;;;5052461;28;20409;-68
2022/04/10 06:49:25;;;;;;;5.30;4.30;;;7.30;99.90;;;;;;5058753;23;20314;-68
2022/04/10 06:51:50;;;;;;;6.00;5.40;;;7.40;99.90;;;;;;5031604;28;20250;-67
2022/04/10 06:54:16;;;;;;;5.43;4.77;;;7.30;99.90;;;;;;5031072;28;20167;-68
2022/04/10 06:56:41;;;;;;;7.50;4.90;;;7.40;99.90;;;;;;5031836;28;20259;-67
2022/04/10 06:59:07;;;;;;;6.77;4.70;;;7.70;99.90;;;;;;5031441;28;20238;-68
2022/04/10 07:01:33;;;;;;;5.73;5.10;;;7.90;99.90;;;;;;5034734;28;20539;-68
2022/04/10 07:04:00;;;;;;;5.60;4.97;;;7.90;99.90;;;;;;5035460;28;20176;-68
2022/04/10 07:06:25;;;;;;;5.30;4.80;;;8.10;99.90;;;;;;5035869;28;20666;-68
2022/04/10 07:08:51;;;;;;;8.30;5.37;;;8.10;99.90;;;;;;5035105;28;20545;-67
2022/04/10 07:11:16;;;;;;;4.57;4.17;;;8.30;99.90;;;;;;5017399;28;20226;-67
2022/04/10 07:13:42;;;;;;;6.60;5.07;;;8.50;99.90;;;;;;5034729;28;20204;-68
2022/04/10 07:16:08;;;;;;;5.10;4.60;;;8.60;99.90;;;;;;5034888;28;20166;-68
2022/04/10 07:18:34;;;;;;;5.93;4.73;;;8.70;99.90;;;;;;5035775;28;20663;-67
2022/04/10 07:20:59;;;;;;;5.70;4.77;;;8.60;99.90;;;;;;5017745;28;20453;-68
2022/04/10 07:23:45;;;;;;;5.80;5.30;;;8.40;99.90;;;;;;5035193;28;20571;-69
2022/04/10 07:26:12;;;;;;;7.40;5.30;;;8.20;99.90;;;;;;5035335;28;20199;-68
2022/04/10 07:28:38;;;;;;;6.57;5.97;;;8.40;99.90;;;;;;5034918;28;20454;-68
2022/04/10 07:31:08;;;;;;;5.70;5.00;;;8.50;99.90;;;;;;5034778;28;20498;-69
2022/04/10 07:33:34;;;;;;;5.67;4.90;;;8.60;99.90;;;;;;5035504;28;20163;-69
2022/04/10 07:35:59;;;;;;;6.20;5.10;;;8.60;99.90;;;;;;5035175;28;20402;-68
2022/04/10 07:38:26;;;;;;;6.80;5.60;;;8.60;99.90;;;;;;5035079;28;20428;-69
2022/04/10 07:40:51;;;;;;;8.10;5.23;;;8.50;99.90;;;;;;5034808;28;20627;-69
2022/04/10 07:43:17;;;;;;;4.47;4.10;;;8.50;99.90;;;;;;5033812;28;20443;-69
2022/04/10 07:48:27;;;;;;;4.80;4.40;;;8.50;99.90;;;;;;5034951;28;20238;-68
2022/04/10 07:50:52;;;;;;;6.50;4.57;;;8.40;99.90;;;;;;5034528;28;20491;-68
2022/04/10 07:53:18;;;;;;;7.17;6.30;;;8.60;99.90;;;;;;5034552;28;20717;-68
2022/04/10 07:55:43;;;;;;;82.20;49.83;;;8.70;99.90;;;;;;5034076;28;20224;-68
2022/04/10 07:58:09;;;;;;;28.07;18.67;;;8.90;99.90;;;;;;5034384;28;20653;-68
2022/04/10 08:00:35;;;;;;;173.77;100.67;;;9.00;99.90;;;;;;5033773;28;20207;-68
2022/04/10 08:03:02;;;;;;;72.37;46.37;;;9.20;99.90;;;;;;5016697;28;20183;-67
2022/04/10 08:05:28;;;;;;;206.77;125.70;;;9.40;99.90;;;;;;5036690;28;20550;-68
2022/04/10 08:07:54;;;;;;;13.53;10.50;;;9.60;99.90;;;;;;5034000;28;20438;-67
2022/04/10 08:10:21;;;;;;;20.93;16.27;;;9.90;99.90;;;;;;5034035;28;20471;-66
2022/04/10 08:12:46;;;;;;;13.47;11.87;;;9.70;99.90;;;;;;5033589;28;20456;-67
2022/04/10 08:15:12;;;;;;;15.10;5.47;;;9.60;99.90;;;;;;5033748;28;20414;-67
2022/04/10 08:17:39;;;;;;;5.67;4.73;;;9.60;99.90;;;;;;5033874;28;20191;-67
2022/04/10 08:20:06;;;;;;;10.57;9.47;;;9.80;99.90;;;;;;5034172;28;20410;-67
2022/04/10 08:22:32;;;;;;;6.13;5.57;;;9.90;99.90;;;;;;5033937;28;20411;-67
2022/04/10 08:25:02;;;;;;;8.80;7.33;;;9.70;99.90;;;;;;5034433;28;20441;-67
2022/04/10 08:27:29;;;;;;;10.90;5.50;;;9.50;99.90;;;;;;5032609;28;20471;-67
2022/04/10 08:29:54;;;;;;;10.10;9.10;;;9.30;99.90;;;;;;5033020;28;20975;-66
2022/04/10 08:32:20;;;;;;;20.63;18.70;;;9.20;99.90;;;;;;5033367;28;20402;-67
2022/04/10 08:34:46;;;;;;;22.53;20.80;;;9.30;99.90;;;;;;5033508;28;20411;-67
2022/04/10 08:37:11;;;;;;;6.60;5.33;;;9.40;99.90;;;;;;5033473;28;20172;-67
2022/04/10 08:39:37;;;;;;;6.40;5.90;;;9.50;99.90;;;;;;5033373;28;20622;-67
2022/04/10 08:42:04;;;;;;;5.30;4.80;;;9.40;99.90;;;;;;5033962;28;20178;-67
2022/04/10 08:44:31;;;;;;;6.83;4.47;;;9.40;99.90;;;;;;5032267;28;20180;-67
2022/04/10 08:46:58;;;;;;;5.60;5.20;;;9.60;99.90;;;;;;5033236;28;20409;-67
2022/04/10 08:49:34;;;;;;;4.83;4.43;;;9.80;99.90;;;;;;5032709;28;20465;-67
2022/04/10 08:51:59;;;;;;;7.60;4.90;;;9.80;99.90;;;;;;5033655;28;20379;-67
2022/04/10 08:54:27;;;;;;;6.43;5.20;;;9.80;99.90;;;;;;5033014;28;20609;-66
2022/04/10 08:56:54;;;;;;;5.57;4.20;;;10.10;98.70;;;;;;5032883;28;20171;-67
2022/04/10 08:59:21;;;;;;;5.00;4.50;;;10.00;98.60;;;;;;5032365;28;20425;-67
2022/04/10 09:01:52;;;;;;;7.13;5.00;;;9.90;99.40;;;;;;5032883;28;20814;-66
2022/04/10 09:04:18;;;;;;;5.43;4.40;;;10.10;99.90;;;;;;5032564;28;20386;-67
2022/04/10 09:06:57;;;;;;;5.53;5.03;;;10.30;99.20;;;;;;5032426;28;20462;-68
2022/04/10 09:09:23;;;;;;;5.73;5.20;;;10.10;99.70;;;;;;5032743;28;20456;-67
2022/04/10 09:11:54;;;;;;;7.33;5.37;;;9.90;99.90;;;;;;5032631;28;20398;-67
2022/04/10 09:14:35;;;;;;;5.73;5.13;;;9.90;99.90;;;;;;5032276;28;20184;-67
2022/04/10 09:17:13;;;;;;;4.93;4.50;;;10.30;99.10;;;;;;5033233;28;20386;-67
2022/04/10 09:19:41;;;;;;;5.00;4.47;;;10.20;98.80;;;;;;5032554;28;20436;-67
2022/04/10 09:22:33;;;;;;;5.90;4.87;;;10.40;98.30;;;;;;5032507;28;20407;-68
2022/04/10 09:25:16;;;;;;;6.13;5.00;;;10.20;98.00;;;;;;5013910;28;20502;-67
2022/04/10 09:27:49;;;;;;;5.03;4.63;;;10.10;98.20;;;;;;5032783;28;20404;-68
2022/04/10 09:30:19;;;;;;;5.00;4.60;;;9.80;99.00;;;;;;5031893;28;20405;-68
2022/04/10 09:32:52;;;;;;;5.53;4.90;;;9.80;99.50;;;;;;5032870;28;20743;-66
2022/04/10 09:35:22;;;;;;;8.37;4.63;;;9.70;99.10;;;;;;5014009;28;20418;-67
2022/04/10 09:37:53;;;;;;;7.17;4.17;;;9.50;99.60;;;;;;5032369;28;20383;-67
2022/04/10 09:40:28;;;;;;;5.60;5.10;;;9.40;99.90;;;;;;5032317;28;20392;-67
2022/04/10 09:43:00;;;;;;;5.23;4.03;;;9.60;99.90;;;;;;5032062;28;20810;-67
2022/04/10 09:45:33;;;;;;;5.53;4.43;;;9.50;99.30;;;;;;5029379;28;20409;-67
2022/04/10 09:48:24;;;;;;;5.87;5.10;;;9.40;99.60;;;;;;5031792;28;20544;-67
2022/04/10 09:50:56;;;;;;;6.53;4.70;;;9.40;99.90;;;;;;5032245;28;20918;-66
2022/04/10 09:53:22;;;;;;;5.20;4.80;;;9.60;99.90;;;;;;5031634;28;20504;-67
2022/04/10 09:56:00;;;;;;;5.63;4.73;;;9.70;99.60;;;;;;5032059;28;20436;-67
2022/04/10 09:58:26;;;;;;;5.90;4.17;;;10.00;98.50;;;;;;5031969;28;20452;-68
2022/04/10 10:00:54;;;;;;;5.33;4.67;;;10.30;98.20;;;;;;5031846;28;20414;-67
2022/04/10 10:03:30;;;;;;;5.00;4.33;;;10.80;97.00;;;;;;5031765;28;20408;-66
2022/04/10 10:05:58;;;;;;;5.47;3.70;;;10.90;96.60;;;;;;5031926;28;20834;-67
2022/04/10 10:08:25;;;;;;;5.53;3.63;;;10.80;95.40;;;;;;5033877;28;20479;-67
2022/04/10 10:10:51;;;;;;;5.10;4.03;;;10.70;94.70;;;;;;4994259;28;20466;-67
2022/04/10 10:13:17;;;;;;;3.60;3.10;;;10.50;94.00;;;;;;5013598;28;20412;-67
2022/04/10 10:15:44;;;;;;;5.20;3.30;;;10.70;94.10;;;;;;5031154;28;20921;-67
2022/04/10 10:18:11;;;;;;;7.50;4.27;;;10.90;93.50;;;;;;5031812;28;20437;-68
2022/04/10 10:20:40;;;;;;;4.73;3.57;;;11.00;94.10;;;;;;5032221;28;20410;-68
2022/04/10 10:23:13;;;;;;;3.50;3.20;;;10.90;94.00;;;;;;5031937;28;20785;-68
2022/04/10 10:25:49;;;;;;;4.00;3.30;;;10.90;94.40;;;;;;5032046;28;20391;-67
2022/04/10 10:28:32;;;;;;;4.00;3.03;;;11.20;94.10;;;;;;5031849;28;20441;-67
2022/04/10 10:31:40;;;;;;;5.20;4.20;;;11.30;93.30;;;;;;5032402;28;20817;-67
2022/04/10 10:34:08;;;;;;;5.17;4.00;;;10.90;92.40;;;;;;4986312;28;20407;-67
2022/04/10 10:36:34;;;;;;;4.77;4.30;;;10.30;94.30;;;;;;5034925;28;20735;-67
2022/04/10 10:39:03;;;;;;;6.73;4.40;;;9.70;97.00;;;;;;5036209;28;20528;-67
2022/04/10 10:41:29;;;;;;;5.47;4.60;;;9.30;99.60;;;;;;5036529;28;20856;-67
2022/04/10 10:43:55;;;;;;;5.40;4.50;;;9.10;99.90;;;;;;5035643;28;20428;-67
2022/04/10 10:46:26;;;;;;;7.20;5.17;;;9.00;99.90;;;;;;5035459;28;20433;-67
2022/04/10 10:49:20;;;;;;;8.43;5.73;;;8.80;99.90;;;;;;5035547;28;20467;-68
2022/04/10 10:51:47;;;;;;;7.40;5.33;;;8.90;99.90;;;;;;5036609;28;20766;-69
2022/04/10 10:54:18;;;;;;;5.50;5.00;;;8.90;99.90;;;;;;5036247;28;20460;-68
2022/04/10 10:56:46;;;;;;;6.70;5.93;;;9.00;99.90;;;;;;5030826;28;20466;-69
2022/04/10 10:59:20;;;;;;;8.07;5.57;;;9.10;99.90;;;;;;5026269;28;20433;-69
2022/04/10 11:02:12;;;;;;;6.77;5.60;;;9.20;99.90;;;;;;5026909;28;20420;-69
2022/04/10 11:04:41;;;;;;;6.50;5.90;;;9.10;99.90;;;;;;5009006;28;20929;-67
2022/04/10 11:07:19;;;;;;;5.63;4.97;;;9.30;99.90;;;;;;5034103;28;20409;-67
2022/04/10 11:09:55;;;;;;;7.00;5.83;;;9.30;99.90;;;;;;5038859;28;21060;-68
2022/04/10 11:12:29;;;;;;;6.30;5.70;;;9.10;99.90;;;;;;5040556;28;20405;-68
2022/04/10 11:14:56;;;;;;;6.30;4.70;;;9.00;99.90;;;;;;5038851;28;20406;-67
2022/04/10 11:17:26;;;;;;;4.20;3.90;;;9.40;99.90;;;;;;5039080;28;20472;-68
2022/04/10 11:20:00;;;;;;;4.03;3.70;;;10.60;99.90;;;;;;5033399;28;20426;-69
2022/04/10 11:22:38;;;;;;;4.07;2.80;;;12.20;97.20;;;;;;5030640;28;20512;-68
2022/04/10 11:25:09;;;;;;;5.10;3.60;;;12.30;95.90;;;;;;5035026;28;20406;-67
2022/04/10 11:27:55;;;;;;;3.67;3.30;;;11.40;95.60;;;;;;5035306;28;20894;-68
2022/04/10 11:30:24;;;;;;;5.57;4.20;;;11.00;95.70;;;;;;5016864;28;20439;-68
2022/04/10 11:32:52;;;;;;;4.23;3.53;;;10.80;95.70;;;;;;5035225;28;20406;-68
2022/04/10 11:35:21;;;;;;;6.33;4.70;;;11.00;96.50;;;;;;5035271;28;20413;-68
2022/04/10 11:37:50;;;;;;;4.73;3.80;;;10.90;95.80;;;;;;5035073;28;20475;-68
2022/04/10 11:40:21;;;;;;;4.60;4.20;;;11.00;94.50;;;;;;5016648;28;20513;-68
2022/04/10 11:43:04;;;;;;;;;;;;;;;;;;;;;
2022/04/10 11:45:31;;;;;;;4.10;3.67;;;11.20;94.80;;;;;;5033145;28;20424;-68
2022/04/10 11:47:57;;;;;;;6.13;4.40;;;11.70;94.70;;;;;;5033578;28;20934;-65
2022/04/10 11:50:28;;;;;;;4.23;3.93;;;11.60;93.90;;;;;;5034000;28;20437;-68
2022/04/10 11:53:06;;;;;;;5.93;3.83;;;12.90;92.90;;;;;;5035379;28;20805;-68
2022/04/10 11:55:40;;;;;;;4.77;4.37;;;;;;;;;;5035030;28;20385;-68
2022/04/10 11:58:10;;;;;;;5.00;4.10;;;;;;;;;;5034357;28;20415;-67
2022/04/10 12:00:37;;;;;;;4.80;4.30;;;;;;;;;;5034357;28;20985;-66
2022/04/10 12:03:03;;;;;;;7.03;4.43;;;;;;;;;;5034366;28;20426;-68
2022/04/10 12:05:30;;;;;;;4.50;4.10;;;;;;;;;;5034074;28;20944;-67
2022/04/10 12:08:03;;;;;;;9.13;3.97;;;;;;;;;;5036669;28;20419;-67
2022/04/10 12:10:30;;;;;;;4.83;3.77;;;;;;;;;;5034291;28;20403;-68
2022/04/10 12:12:56;;;;;;;4.00;3.70;;;;;;;;;;5034591;28;20406;-67
2022/04/10 12:15:23;;;;;;;5.23;4.27;;;;;;;;;;5034038;28;20413;-68
2022/04/10 12:17:50;;;;;;;5.77;4.60;;;;;;;;;;5034421;28;20397;-68
2022/04/10 12:20:16;;;;;;;4.97;3.67;;;;;;;;;;5034513;28;20414;-68
2022/04/10 12:22:43;;;;;;;5.50;3.93;;;;;;;;;;5034416;28;20894;-68
2022/04/10 12:25:11;;;;;;;5.03;3.90;;;;;;;;;;5034072;28;20415;-68
2022/04/10 12:27:38;;;;;;;7.50;5.17;;;;;;;;;;5034321;28;20408;-68
2022/04/10 12:30:14;;;;;;;6.20;4.87;;;;;;;;;;5033320;28;20445;-68
2022/04/10 12:32:40;;;;;;;7.73;5.10;;;;;;;;;;5034866;28;20391;-68
2022/04/10 12:35:07;;;;;;;4.73;3.83;;;;;;;;;;5034562;28;20404;-68
2022/04/10 12:37:33;;;;;;;5.13;4.63;;;;;;;;;;5033951;28;20415;-68
2022/04/10 12:40:00;;;;;;;12.73;5.60;;;;;;;;;;5034025;28;20446;-68
2022/04/10 12:42:27;;;;;;;5.90;4.67;;;;;;;;;;5033948;28;20411;-68
2022/04/10 12:44:57;;;;;;;6.17;4.20;;;;;;;;;;5032771;28;20430;-68
2022/04/10 12:47:42;;;;;;;5.73;4.87;;;;;;;;;;5034172;28;20450;-68
2022/04/10 12:50:09;;;;;;;5.70;4.50;;;;;;;;;;5034949;28;20850;-68
2022/04/10 12:52:37;;;;;;;6.07;5.00;;;;;;;;;;5033842;28;20411;-68
2022/04/10 12:55:14;;;;;;;5.13;4.63;;;;;;;;;;5015573;28;20515;-68
2022/04/10 12:57:42;;;;;;;6.80;4.60;;;;;;;;;;5033567;28;20423;-69
2022/04/10 13:00:08;;;;;;;6.40;4.40;;;;;;;;;;5033093;28;20406;-68
2022/04/10 13:02:38;;;;;;;6.60;4.37;;;;;;;;;;5033714;28;20471;-68
2022/04/10 13:05:05;;;;;;;5.57;4.53;;;;;;;;;;5033680;28;20532;-68
2022/04/10 13:07:32;;;;;;;6.30;3.90;;;;;;;;;;5033424;28;20486;-68
2022/04/10 13:10:06;;;;;;;9.17;3.90;;;;;;;;;;5033421;28;20449;-68